Ferry Osaka II — JD3858 — position and weather

sailwx.info

Track history (hours):
 
Tides and Currents Weather Stations Pressure Air Temp Water Temp Dewpoint Dewpoint Depression Visibility Wind Speed Wind Dir Waves Ship Positions

Ferry Osaka II

Last reported at 2018-Apr-22 14:01 UTC. Time now 2018-Apr-22 14:04 UTC.
Position N 34°29' E 134°30'.

Length 183 m; draft 8 m.

Type: Passenger vessel. MMSI: 431006802.

Date/timePositionNaut miles runAvg speedWind from/ knotsBaromVisibWave heightAir tempDewpointWater temp
2018-Apr-22 14:01N 34°29' E 134°30'917.3
2018-Apr-22 13:30N 34°31' E 134°40'917.8
2018-Apr-22 13:01N 34°35' E 134°50'917.1
2018-Apr-22 12:30N 34°38' E 135°00'714.7
2018-Apr-22 12:00N 34°36' E 135°09'815.7
2018-Apr-22 11:31N 34°36' E 135°18'612.1
2018-Apr-22 11:00N 34°37' E 135°25'0 0.7
2018-Apr-22 10:30N 34°37' E 135°26'0 0.0
2018-Apr-22 10:00N 34°37' E 135°26'0 0.0
2018-Apr-22 09:30N 34°37' E 135°26'0 0.0
2018-Apr-22 09:00N 34°37' E 135°26'0 0.0
2018-Apr-22 08:30N 34°37' E 135°26'0 0.0
2018-Apr-22 08:00N 34°37' E 135°26'0 0.0
2018-Apr-22 07:30N 34°37' E 135°26'0 0.0
2018-Apr-22 07:00N 34°37' E 135°26'0 0.0
2018-Apr-22 06:30N 34°37' E 135°26'0 0.0
2018-Apr-22 06:00N 34°37' E 135°26'0 0.0
2018-Apr-22 05:30N 34°37' E 135°26'0 0.0
2018-Apr-22 05:00N 34°37' E 135°26'0 0.0
2018-Apr-22 04:30N 34°37' E 135°26'0 0.0
2018-Apr-22 04:00N 34°37' E 135°26'0 0.0
2018-Apr-22 03:30N 34°37' E 135°26'0 0.0
2018-Apr-22 03:00N 34°37' E 135°26'0 0.4
2018-Apr-22 02:30N 34°37' E 135°26'511.0
2018-Apr-22 02:01N 34°36' E 135°19'713.7
2018-Apr-22 01:31N 34°35' E 135°11'714.0
2018-Apr-22 01:00N 34°36' E 135°02'815.1
2018-Apr-22 00:30N 34°35' E 134°53'816.7
2018-Apr-22 00:00N 34°31' E 134°45'816.7
2018-Apr-21 23:30N 34°28' E 134°35'815.9
2018-Apr-21 23:00N 34°25' E 134°26'816.1
2018-Apr-21 22:30N 34°24' E 134°16'816.7
2018-Apr-21 22:00N 34°26' E 134°07'714.0
2018-Apr-21 21:30N 34°25' E 133°58'713.9
2018-Apr-21 21:00N 34°22' E 133°50'816.4
2018-Apr-21 20:30N 34°18' E 133°42'916.6
2018-Apr-21 19:58N 34°16' E 133°31'816.9
2018-Apr-21 19:29N 34°13' E 133°22'1116.6
2018-Apr-21 18:51N 34°09' E 133°10'616.4
2018-Apr-21 18:27N 34°06' E 133°03'510.4
2018-Apr-21 17:59N 34°09' E 132°58'713.6
2018-Apr-21 17:30N 34°06' E 132°51'918.4
2018-Apr-21 17:00N 33°59' E 132°44'918.4
2018-Apr-21 16:30N 33°52' E 132°36'917.6
2018-Apr-21 16:00N 33°47' E 132°28'918.0
2018-Apr-21 15:30N 33°44' E 132°18'1817.0
2018-Apr-21 14:26N 33°43' E 131°56'716.6
2018-Apr-21 14:00N 33°45' E 131°47'816.3
2018-Apr-21 13:30N 33°46' E 131°38'816.4
2018-Apr-21 13:00N 33°48' E 131°28'816.4
2018-Apr-21 12:30N 33°50' E 131°19'816.2
2018-Apr-21 12:00N 33°52' E 131°09'612.8
2018-Apr-21 11:30N 33°53' E 131°01'2 3.1
2018-Apr-21 10:49N 33°52' E 130°59'0 0.0
2018-Apr-21 10:25N 33°52' E 130°59'0 0.0
2018-Apr-21 09:55N 33°52' E 130°59'0 0.0
2018-Apr-21 09:25N 33°52' E 130°59'0 0.0
2018-Apr-21 08:55N 33°52' E 130°59'0 0.0
2018-Apr-21 08:13N 33°52' E 130°59'0 0.5
2018-Apr-21 07:58N 33°52' E 130°59'0 0.0
2018-Apr-21 07:28N 33°52' E 130°59'0 0.0
2018-Apr-21 06:55N 33°52' E 130°59'0 0.0
2018-Apr-21 06:19N 33°52' E 130°59'0 0.0
2018-Apr-21 05:55N 33°52' E 130°59'0 0.0
2018-Apr-21 05:28N 33°52' E 130°59'0 0.0
2018-Apr-21 04:55N 33°52' E 130°59'0 0.3
2018-Apr-21 04:27N 33°52' E 130°59'0 0.0
2018-Apr-21 04:00N 33°52' E 130°59'0 0.0
2018-Apr-21 03:27N 33°52' E 130°59'0 0.0
2018-Apr-21 02:57N 33°52' E 130°59'0 0.5
2018-Apr-21 02:30N 33°52' E 130°59'612.2
2018-Apr-21 02:00N 33°53' E 131°07'714.7
2018-Apr-21 01:31N 33°51' E 131°15'714.9
2018-Apr-21 01:01N 33°50' E 131°24'715.0
2018-Apr-21 00:31N 33°48' E 131°33'815.1
2018-Apr-21 00:01N 33°47' E 131°42'814.9
2018-Apr-20 23:30N 33°45' E 131°51'1015.2
2018-Apr-20 22:52N 33°43' E 132°02'515.1
2018-Apr-20 22:30N 33°42' E 132°08'815.4
2018-Apr-20 22:00N 33°44' E 132°17'815.4
2018-Apr-20 21:30N 33°47' E 132°26'815.8
2018-Apr-20 21:00N 33°51' E 132°34'815.9
2018-Apr-20 20:30N 33°57' E 132°41'815.8
2018-Apr-20 20:00N 34°03' E 132°47'1115.4
2018-Apr-20 19:19N 34°10' E 132°56'514.5
2018-Apr-20 18:57N 34°06' E 133°01'4814.9
2018-Apr-20 15:44N 34°24' E 133°54'313.1
2018-Apr-20 15:28N 34°25' E 133°58'714.7
2018-Apr-20 14:59N 34°27' E 134°07'918.0
2018-Apr-20 14:30N 34°24' E 134°17'917.3
2018-Apr-20 14:01N 34°26' E 134°27'917.4
2018-Apr-20 13:31N 34°30' E 134°37'918.1
2018-Apr-20 13:01N 34°34' E 134°47'1019.2
2018-Apr-20 12:31N 34°37' E 134°58'917.4
2018-Apr-20 12:00N 34°36' E 135°08'816.6
2018-Apr-20 11:31N 34°36' E 135°18'611.9
2018-Apr-20 11:00N 34°37' E 135°25'0 0.9
2018-Apr-20 10:28N 34°37' E 135°26'0 0.0
2018-Apr-20 09:58N 34°37' E 135°26'0 0.0
2018-Apr-20 09:28N 34°37' E 135°26'0 0.0
2018-Apr-20 08:58N 34°37' E 135°26'0 0.0
2018-Apr-20 08:28N 34°37' E 135°26'0 0.0
2018-Apr-20 07:58N 34°37' E 135°26'0 0.0
2018-Apr-20 07:28N 34°37' E 135°26'0 0.0
2018-Apr-20 06:58N 34°37' E 135°26'0 0.0
2018-Apr-20 06:28N 34°37' E 135°26'0 0.0
2018-Apr-20 05:58N 34°37' E 135°26'0 0.0
2018-Apr-20 05:28N 34°37' E 135°26'0 0.0
2018-Apr-20 04:58N 34°37' E 135°26'0 0.0
2018-Apr-20 04:28N 34°37' E 135°26'0 0.0
2018-Apr-20 03:58N 34°37' E 135°26'0 0.0
2018-Apr-20 03:28N 34°37' E 135°26'0 0.0
2018-Apr-20 02:58N 34°37' E 135°26'1 2.2
2018-Apr-20 02:30N 34°37' E 135°25'713.6
2018-Apr-20 02:00N 34°36' E 135°17'816.5
2018-Apr-20 01:30N 34°34' E 135°07'713.9
2018-Apr-20 01:00N 34°37' E 134°59'713.7
2018-Apr-20 00:31N 34°34' E 134°51'713.3
2018-Apr-20 00:01N 34°31' E 134°44'713.6
2018-Apr-19 23:30N 34°28' E 134°37'713.9
2018-Apr-19 23:00N 34°26' E 134°29'714.1
2018-Apr-19 22:30N 34°24' E 134°21'714.4
2018-Apr-19 22:00N 34°24' E 134°12'714.3
2018-Apr-19 21:30N 34°26' E 134°04'713.3
2018-Apr-19 21:00N 34°24' E 133°56'914.2
2018-Apr-19 20:22N 34°21' E 133°46'616.2
2018-Apr-19 20:00N 34°18' E 133°40'2016.2
2018-Apr-19 18:45N 34°12' E 133°16'2313.0
2018-Apr-19 16:57N 34°04' E 132°50'817.4
2018-Apr-19 16:31N 33°58' E 132°44'917.5
2018-Apr-19 16:00N 33°53' E 132°36'917.6
2018-Apr-19 15:30N 33°47' E 132°27'1017.9
2018-Apr-19 14:58N 33°43' E 132°17'1018.0
2018-Apr-19 14:26N 33°41' E 132°06'917.9
2018-Apr-19 13:57N 33°43' E 131°55'816.9
2018-Apr-19 13:30N 33°45' E 131°47'916.7
2018-Apr-19 12:59N 33°47' E 131°36'816.8
2018-Apr-19 12:30N 33°48' E 131°27'816.7
2018-Apr-19 12:00N 33°50' E 131°17'816.3
2018-Apr-19 11:30N 33°53' E 131°08'613.1
2018-Apr-19 11:00N 33°52' E 130°60'1 1.0
2018-Apr-19 10:25N 33°52' E 130°59'0 0.0
2018-Apr-19 09:55N 33°52' E 130°59'0 0.0
2018-Apr-19 09:25N 33°52' E 130°59'0 0.0
2018-Apr-19 08:55N 33°52' E 130°59'0 0.0
2018-Apr-19 08:25N 33°52' E 130°59'0 0.2
2018-Apr-19 07:43N 33°52' E 130°59'0 0.0
2018-Apr-19 07:25N 33°52' E 130°59'0 0.0
2018-Apr-19 06:55N 33°52' E 130°59'0 0.0
2018-Apr-19 06:25N 33°52' E 130°59'0 0.0
2018-Apr-19 05:55N 33°52' E 130°59'0 0.0
2018-Apr-19 05:25N 33°52' E 130°59'0 0.0
2018-Apr-19 04:58N 33°52' E 130°59'0 0.3
2018-Apr-19 04:27N 33°52' E 130°59'0 0.0
2018-Apr-19 04:00N 33°52' E 130°59'0 0.0
2018-Apr-19 03:27N 33°52' E 130°59'0 0.0
2018-Apr-19 02:57N 33°52' E 130°59'0 0.9
2018-Apr-19 02:30N 33°52' E 130°60'612.3
2018-Apr-19 02:00N 33°53' E 131°07'714.8
2018-Apr-19 01:30N 33°51' E 131°16'714.9
2018-Apr-19 01:00N 33°50' E 131°25'815.1
2018-Apr-19 00:30N 33°48' E 131°33'815.1
2018-Apr-19 00:00N 33°47' E 131°42'815.1
2018-Apr-18 23:30N 33°45' E 131°51'815.1
2018-Apr-18 23:00N 33°43' E 132°00'915.0
2018-Apr-18 22:25N 33°43' E 132°11'716.0
2018-Apr-18 21:58N 33°45' E 132°19'715.5
2018-Apr-18 21:30N 33°48' E 132°27'714.5
2018-Apr-18 21:00N 33°52' E 132°34'715.1
2018-Apr-18 20:31N 33°57' E 132°41'915.5
2018-Apr-18 19:54N 34°04' E 132°48'1014.6
2018-Apr-18 19:14N 34°09' E 132°58'5014.1
2018-Apr-18 15:41N 34°25' E 133°56'413.6
2018-Apr-18 15:23N 34°26' E 134°00'614.9
2018-Apr-18 15:00N 34°27' E 134°07'816.0
2018-Apr-18 14:31N 34°24' E 134°16'816.4
2018-Apr-18 14:00N 34°26' E 134°26'917.4
2018-Apr-18 13:31N 34°30' E 134°36'918.1
2018-Apr-18 13:00N 34°33' E 134°46'1019.9
2018-Apr-18 12:30N 34°37' E 134°57'918.2
2018-Apr-18 12:01N 34°36' E 135°08'816.8
2018-Apr-18 11:30N 34°37' E 135°18'612.0
2018-Apr-18 11:00N 34°37' E 135°25'0 0.9
2018-Apr-18 10:31N 34°37' E 135°26'0 0.0
2018-Apr-18 10:01N 34°37' E 135°26'0 0.0
2018-Apr-18 09:31N 34°37' E 135°26'0 0.0
2018-Apr-18 09:01N 34°37' E 135°26'0 0.0
2018-Apr-18 08:30N 34°37' E 135°26'0 0.0
2018-Apr-18 08:01N 34°37' E 135°26'0 0.0
2018-Apr-18 07:30N 34°37' E 135°26'0 0.0
2018-Apr-18 07:01N 34°37' E 135°26'0 0.0
2018-Apr-18 06:30N 34°37' E 135°26'0 0.0
2018-Apr-18 06:01N 34°37' E 135°26'0 0.0
2018-Apr-18 05:31N 34°37' E 135°26'0 0.0
2018-Apr-18 05:00N 34°37' E 135°26'0 0.0
2018-Apr-18 04:31N 34°37' E 135°26'0 0.0
2018-Apr-18 04:01N 34°37' E 135°26'0 0.0
2018-Apr-18 03:30N 34°37' E 135°26'0 0.0
2018-Apr-18 03:00N 34°37' E 135°26'1 1.6
2018-Apr-18 02:30N 34°37' E 135°25'713.7
2018-Apr-18 02:00N 34°35' E 135°17'817.2
2018-Apr-18 01:31N 34°35' E 135°07'714.8
2018-Apr-18 01:00N 34°37' E 134°58'815.8
2018-Apr-18 00:30N 34°33' E 134°49'816.7
2018-Apr-18 00:00N 34°30' E 134°40'917.2
2018-Apr-17 23:30N 34°27' E 134°30'917.5
2018-Apr-17 23:00N 34°24' E 134°20'816.5
2018-Apr-17 22:30N 34°25' E 134°10'1111.7
2018-Apr-17 21:33N 34°24' E 133°57'112.5
2018-Apr-17 21:30N 34°24' E 133°56'1415.0
2018-Apr-17 20:34N 34°18' E 133°41'4214.0
2018-Apr-17 17:35N 34°07' E 132°52'215.1
2018-Apr-17 17:28N 34°05' E 132°51'715.3
2018-Apr-17 17:00N 33°60' E 132°45'815.5
2018-Apr-17 16:28N 33°54' E 132°38'715.9
2018-Apr-17 16:00N 33°49' E 132°32'816.3
2018-Apr-17 15:29N 33°45' E 132°23'1016.4
2018-Apr-17 14:52N 33°42' E 132°11'716.6
2018-Apr-17 14:27N 33°42' E 132°03'717.0
2018-Apr-17 14:00N 33°43' E 131°54'916.8
2018-Apr-17 13:30N 33°45' E 131°44'816.6
2018-Apr-17 13:00N 33°47' E 131°34'816.4
2018-Apr-17 12:30N 33°49' E 131°25'816.1
2018-Apr-17 12:00N 33°51' E 131°15'815.3
2018-Apr-17 11:30N 33°53' E 131°06'611.1
2018-Apr-17 11:00N 33°52' E 130°60'0 0.7
2018-Apr-17 10:26N 33°52' E 130°59'0 0.0
2018-Apr-17 09:56N 33°52' E 130°59'0 0.0
2018-Apr-17 09:29N 33°52' E 130°59'0 0.0
2018-Apr-17 08:50N 33°52' E 130°59'0 0.0
2018-Apr-17 08:26N 33°52' E 130°59'0 0.3
2018-Apr-17 07:55N 33°52' E 130°59'0 0.0
2018-Apr-17 07:25N 33°52' E 130°59'0 0.0
2018-Apr-17 06:55N 33°52' E 130°59'0 0.0
2018-Apr-17 06:25N 33°52' E 130°59'0 0.0
2018-Apr-17 05:58N 33°52' E 130°59'0 0.0
2018-Apr-17 05:28N 33°52' E 130°59'0 0.0
2018-Apr-17 04:55N 33°52' E 130°59'0 0.3
2018-Apr-17 04:27N 33°52' E 130°59'0 0.0
2018-Apr-17 03:57N 33°52' E 130°59'0 0.0
2018-Apr-17 03:27N 33°52' E 130°59'0 0.0
2018-Apr-17 02:43N 33°52' E 130°59'0 1.2
2018-Apr-17 02:30N 33°52' E 130°59'611.5
2018-Apr-17 02:00N 33°53' E 131°06'714.5
2018-Apr-17 01:30N 33°51' E 131°15'715.0
2018-Apr-17 01:00N 33°50' E 131°24'815.1
2018-Apr-17 00:30N 33°48' E 131°32'815.3
2018-Apr-17 00:00N 33°47' E 131°41'815.8
2018-Apr-16 23:30N 33°45' E 131°51'816.0
2018-Apr-16 23:00N 33°44' E 132°00'714.8
2018-Apr-16 22:30N 33°42' E 132°09'814.4
2018-Apr-16 21:57N 33°45' E 132°18'714.1
2018-Apr-16 21:29N 33°47' E 132°26'714.2
2018-Apr-16 21:00N 33°51' E 132°33'714.7
2018-Apr-16 20:31N 33°56' E 132°39'815.0
2018-Apr-16 20:00N 34°01' E 132°45'1315.5
2018-Apr-16 19:10N 34°10' E 132°57'5414.6
2018-Apr-16 15:29N 34°26' E 133°59'713.5
2018-Apr-16 14:57N 34°26' E 134°08'715.8
2018-Apr-16 14:31N 34°25' E 134°16'816.6
2018-Apr-16 14:00N 34°26' E 134°26'917.2
2018-Apr-16 13:30N 34°30' E 134°36'917.6
2018-Apr-16 13:00N 34°33' E 134°45'1019.2
2018-Apr-16 12:31N 34°37' E 134°56'917.6
2018-Apr-16 12:00N 34°36' E 135°07'917.2
2018-Apr-16 11:31N 34°37' E 135°17'712.9
2018-Apr-16 11:00N 34°37' E 135°25'0 0.9
2018-Apr-16 10:29N 34°37' E 135°26'0 0.0
2018-Apr-16 09:59N 34°37' E 135°26'0 0.0
2018-Apr-16 09:29N 34°37' E 135°26'0 0.0
2018-Apr-16 08:59N 34°37' E 135°26'0 0.0
2018-Apr-16 08:29N 34°37' E 135°26'0 0.0
2018-Apr-16 07:59N 34°37' E 135°26'0 0.0
2018-Apr-16 07:29N 34°37' E 135°26'0 0.0
2018-Apr-16 06:59N 34°37' E 135°26'0 0.0
2018-Apr-16 06:29N 34°37' E 135°26'0 0.0
2018-Apr-16 05:59N 34°37' E 135°26'0 0.0
2018-Apr-16 05:29N 34°37' E 135°26'0 0.0
2018-Apr-16 04:59N 34°37' E 135°26'0 0.0
2018-Apr-16 04:29N 34°37' E 135°26'0 0.0
2018-Apr-16 03:59N 34°37' E 135°26'0 0.0
2018-Apr-16 03:29N 34°37' E 135°26'0 0.0
2018-Apr-16 02:59N 34°37' E 135°26'1 1.4
2018-Apr-16 02:30N 34°37' E 135°25'611.5
2018-Apr-16 02:00N 34°36' E 135°18'714.0
2018-Apr-16 01:30N 34°35' E 135°10'713.5
2018-Apr-16 01:00N 34°36' E 135°02'713.5
2018-Apr-16 00:30N 34°35' E 134°54'714.8
2018-Apr-16 00:01N 34°32' E 134°46'816.2
2018-Apr-15 23:30N 34°29' E 134°37'816.4
2018-Apr-15 23:00N 34°26' E 134°27'816.0
2018-Apr-15 22:30N 34°23' E 134°18'815.0
2018-Apr-15 21:59N 34°26' E 134°09'2414.1
2018-Apr-15 20:16N 34°18' E 133°41'4414.0
2018-Apr-15 17:07N 34°05' E 132°50'215.3
2018-Apr-15 17:00N 34°04' E 132°49'714.8
2018-Apr-15 16:30N 33°58' E 132°44'815.1
2018-Apr-15 16:00N 33°53' E 132°37'915.4
2018-Apr-15 15:25N 33°47' E 132°28'715.8
2018-Apr-15 15:00N 33°45' E 132°21'816.1
2018-Apr-15 14:30N 33°42' E 132°12'1117.4
2018-Apr-15 13:52N 33°43' E 131°58'618.3
2018-Apr-15 13:30N 33°44' E 131°51'918.4
2018-Apr-15 13:00N 33°46' E 131°40'918.3
2018-Apr-15 12:30N 33°48' E 131°29'917.9
2018-Apr-15 12:00N 33°50' E 131°19'917.5
2018-Apr-15 11:28N 33°53' E 131°08'613.8
2018-Apr-15 11:00N 33°52' E 131°00'1 1.5
2018-Apr-15 10:29N 33°52' E 130°59'0 0.0
2018-Apr-15 09:59N 33°52' E 130°59'0 0.0
2018-Apr-15 09:29N 33°52' E 130°59'0 0.0
2018-Apr-15 08:59N 33°52' E 130°59'0 0.0
2018-Apr-15 08:29N 33°52' E 130°59'0 0.3
2018-Apr-15 07:59N 33°52' E 130°59'0 0.0
2018-Apr-15 07:29N 33°52' E 130°59'0 0.0
2018-Apr-15 06:59N 33°52' E 130°59'0 0.0
2018-Apr-15 06:29N 33°52' E 130°59'0 0.0
2018-Apr-15 05:59N 33°52' E 130°59'0 0.0
2018-Apr-15 05:29N 33°52' E 130°59'0 0.0
2018-Apr-15 04:59N 33°52' E 130°59'0 0.3
2018-Apr-15 04:29N 33°52' E 130°59'0 0.0
2018-Apr-15 03:59N 33°52' E 130°59'0 0.0
2018-Apr-15 03:29N 33°52' E 130°59'0 0.0
2018-Apr-15 02:59N 33°52' E 130°59'1 1.5
2018-Apr-15 02:30N 33°52' E 131°00'611.4
2018-Apr-15 02:00N 33°53' E 131°07'612.6
2018-Apr-15 01:31N 33°51' E 131°14'713.0
2018-Apr-15 01:00N 33°50' E 131°22'713.7
2018-Apr-15 00:30N 33°49' E 131°30'713.8
2018-Apr-15 00:00N 33°48' E 131°38'815.1
2018-Apr-14 23:30N 33°46' E 131°47'816.3
2018-Apr-14 23:00N 33°44' E 131°57'816.0
2018-Apr-14 22:30N 33°42' E 132°06'715.2
2018-Apr-14 22:00N 33°44' E 132°15'816.4
2018-Apr-14 21:30N 33°46' E 132°24'816.6
2018-Apr-14 21:00N 33°51' E 132°33'816.7
2018-Apr-14 20:31N 33°56' E 132°40'916.1
2018-Apr-14 19:58N 34°03' E 132°47'6814.7
2018-Apr-14 15:22N 34°27' E 134°04'814.9
2018-Apr-14 14:48N 34°25' E 134°13'515.1
2018-Apr-14 14:30N 34°25' E 134°19'816.4
2018-Apr-14 14:00N 34°28' E 134°28'816.2
2018-Apr-14 13:30N 34°31' E 134°37'816.7
2018-Apr-14 13:00N 34°34' E 134°46'917.8
2018-Apr-14 12:30N 34°37' E 134°57'917.1
2018-Apr-14 12:00N 34°36' E 135°07'917.4
2018-Apr-14 11:30N 34°36' E 135°17'713.2
2018-Apr-14 11:00N 34°37' E 135°25'0 0.7
2018-Apr-14 10:29N 34°37' E 135°26'0 0.0
2018-Apr-14 09:59N 34°37' E 135°26'0 0.0
2018-Apr-14 09:29N 34°37' E 135°26'0 0.0
2018-Apr-14 08:59N 34°37' E 135°26'0 0.0
2018-Apr-14 08:29N 34°37' E 135°26'0 0.0
2018-Apr-14 07:59N 34°37' E 135°26'0 0.0
2018-Apr-14 07:29N 34°37' E 135°26'0 0.0
2018-Apr-14 06:56N 34°37' E 135°26'0 0.0
2018-Apr-14 06:29N 34°37' E 135°26'0 0.0
2018-Apr-14 05:59N 34°37' E 135°26'0 0.0
2018-Apr-14 05:26N 34°37' E 135°26'0 0.0
2018-Apr-14 04:59N 34°37' E 135°26'0 0.0
2018-Apr-14 04:26N 34°37' E 135°26'0 0.0
2018-Apr-14 03:59N 34°37' E 135°26'0 0.0
2018-Apr-14 03:29N 34°37' E 135°26'0 0.0
2018-Apr-14 02:59N 34°37' E 135°26'1 1.4
2018-Apr-14 02:30N 34°37' E 135°25'612.2
2018-Apr-14 02:00N 34°36' E 135°18'714.5
2018-Apr-14 01:30N 34°35' E 135°09'714.5
2018-Apr-14 01:00N 34°37' E 135°01'816.8
2018-Apr-14 00:30N 34°34' E 134°51'816.4
2018-Apr-14 00:00N 34°31' E 134°42'917.2
2018-Apr-13 23:30N 34°27' E 134°33'917.4
2018-Apr-13 23:00N 34°24' E 134°23'816.4
2018-Apr-13 22:31N 34°24' E 134°13'914.6
2018-Apr-13 21:54N 34°26' E 134°02'711.9
2018-Apr-13 21:18N 34°24' E 133°54'713.6
2018-Apr-13 20:48N 34°21' E 133°47'514.4
2018-Apr-13 20:28N 34°18' E 133°42'1014.9
2018-Apr-13 19:48N 34°16' E 133°30'3413.1
2018-Apr-13 17:10N 34°05' E 132°51'315.2
2018-Apr-13 16:58N 34°03' E 132°48'714.7
2018-Apr-13 16:30N 33°57' E 132°43'714.6
2018-Apr-13 16:00N 33°53' E 132°36'815.3
2018-Apr-13 15:29N 33°47' E 132°29'715.6
2018-Apr-13 15:00N 33°45' E 132°21'815.8
2018-Apr-13 14:30N 33°42' E 132°12'816.8
2018-Apr-13 14:00N 33°42' E 132°02'918.0
2018-Apr-13 13:30N 33°44' E 131°51'918.4
2018-Apr-13 13:00N 33°46' E 131°40'918.5
2018-Apr-13 12:30N 33°48' E 131°30'918.3
2018-Apr-13 12:00N 33°50' E 131°19'917.9
2018-Apr-13 11:30N 33°52' E 131°08'714.1
2018-Apr-13 11:00N 33°52' E 131°00'1 1.3
2018-Apr-13 10:29N 33°52' E 130°59'0 0.0
2018-Apr-13 09:56N 33°52' E 130°59'0 0.0
2018-Apr-13 09:26N 33°52' E 130°59'0 0.0
2018-Apr-13 08:56N 33°52' E 130°59'0 0.0
2018-Apr-13 08:29N 33°52' E 130°59'0 0.3
2018-Apr-13 07:56N 33°52' E 130°59'0 0.0
2018-Apr-13 07:26N 33°52' E 130°59'0 0.0
2018-Apr-13 06:56N 33°52' E 130°59'0 0.0
2018-Apr-13 06:26N 33°52' E 130°59'0 0.0
2018-Apr-13 05:56N 33°52' E 130°59'0 0.0
2018-Apr-13 05:26N 33°52' E 130°59'0 0.0
2018-Apr-13 04:56N 33°52' E 130°59'0 0.3
2018-Apr-13 04:29N 33°52' E 130°59'0 0.0
2018-Apr-13 03:59N 33°52' E 130°59'0 0.0
2018-Apr-13 03:26N 33°52' E 130°59'0 0.0
2018-Apr-13 02:59N 33°52' E 130°59'1 1.5
2018-Apr-13 02:30N 33°52' E 131°00'612.0
2018-Apr-13 02:00N 33°53' E 131°07'714.1
2018-Apr-13 01:30N 33°52' E 131°15'714.8
2018-Apr-13 01:01N 33°50' E 131°24'815.1
2018-Apr-13 00:31N 33°49' E 131°33'815.1
2018-Apr-13 00:00N 33°47' E 131°42'714.9
2018-Apr-12 23:31N 33°45' E 131°50'815.4
2018-Apr-12 23:01N 33°43' E 131°59'915.4
2018-Apr-12 22:25N 33°43' E 132°10'716.9
2018-Apr-12 22:01N 33°45' E 132°18'917.2
2018-Apr-12 21:31N 33°48' E 132°28'917.0
2018-Apr-12 21:00N 33°53' E 132°36'816.2
2018-Apr-12 20:30N 33°59' E 132°43'7014.5
2018-Apr-12 15:40N 34°26' E 134°01'214.3
2018-Apr-12 15:30N 34°27' E 134°04'715.1
2018-Apr-12 15:01N 34°25' E 134°13'815.3
2018-Apr-12 14:30N 34°25' E 134°22'  
Track history (hours):
 
Tides and Currents Weather Stations Pressure Air Temp Water Temp Dewpoint Dewpoint Depression Visibility Wind Speed Wind Dir Waves Ship Positions

Ferry Osaka II

Last reported at 2018-Apr-22 14:01 UTC. Time now 2018-Apr-22 14:04 UTC.
Position N 34°29' E 134°30'.

Length 183 m; draft 8 m.

Type: Passenger vessel. MMSI: 431006802.

Date/timePositionNaut miles runAvg speedWind from/ knotsBaromVisibWave heightAir tempDewpointWater temp
2018-Apr-22 14:01N 34°29' E 134°30'917.3
2018-Apr-22 13:30N 34°31' E 134°40'917.8
2018-Apr-22 13:01N 34°35' E 134°50'917.1
2018-Apr-22 12:30N 34°38' E 135°00'714.7
2018-Apr-22 12:00N 34°36' E 135°09'815.7
2018-Apr-22 11:31N 34°36' E 135°18'612.1
2018-Apr-22 11:00N 34°37' E 135°25'0 0.7
2018-Apr-22 10:30N 34°37' E 135°26'0 0.0
2018-Apr-22 10:00N 34°37' E 135°26'0 0.0
2018-Apr-22 09:30N 34°37' E 135°26'0 0.0
2018-Apr-22 09:00N 34°37' E 135°26'0 0.0
2018-Apr-22 08:30N 34°37' E 135°26'0 0.0
2018-Apr-22 08:00N 34°37' E 135°26'0 0.0
2018-Apr-22 07:30N 34°37' E 135°26'0 0.0
2018-Apr-22 07:00N 34°37' E 135°26'0 0.0
2018-Apr-22 06:30N 34°37' E 135°26'0 0.0
2018-Apr-22 06:00N 34°37' E 135°26'0 0.0
2018-Apr-22 05:30N 34°37' E 135°26'0 0.0
2018-Apr-22 05:00N 34°37' E 135°26'0 0.0
2018-Apr-22 04:30N 34°37' E 135°26'0 0.0
2018-Apr-22 04:00N 34°37' E 135°26'0 0.0
2018-Apr-22 03:30N 34°37' E 135°26'0 0.0
2018-Apr-22 03:00N 34°37' E 135°26'0 0.4
2018-Apr-22 02:30N 34°37' E 135°26'511.0
2018-Apr-22 02:01N 34°36' E 135°19'713.7
2018-Apr-22 01:31N 34°35' E 135°11'714.0
2018-Apr-22 01:00N 34°36' E 135°02'815.1
2018-Apr-22 00:30N 34°35' E 134°53'816.7
2018-Apr-22 00:00N 34°31' E 134°45'816.7
2018-Apr-21 23:30N 34°28' E 134°35'815.9
2018-Apr-21 23:00N 34°25' E 134°26'816.1
2018-Apr-21 22:30N 34°24' E 134°16'816.7
2018-Apr-21 22:00N 34°26' E 134°07'714.0
2018-Apr-21 21:30N 34°25' E 133°58'713.9
2018-Apr-21 21:00N 34°22' E 133°50'816.4
2018-Apr-21 20:30N 34°18' E 133°42'916.6
2018-Apr-21 19:58N 34°16' E 133°31'816.9
2018-Apr-21 19:29N 34°13' E 133°22'1116.6
2018-Apr-21 18:51N 34°09' E 133°10'616.4
2018-Apr-21 18:27N 34°06' E 133°03'510.4
2018-Apr-21 17:59N 34°09' E 132°58'713.6
2018-Apr-21 17:30N 34°06' E 132°51'918.4
2018-Apr-21 17:00N 33°59' E 132°44'918.4
2018-Apr-21 16:30N 33°52' E 132°36'917.6
2018-Apr-21 16:00N 33°47' E 132°28'918.0
2018-Apr-21 15:30N 33°44' E 132°18'1817.0
2018-Apr-21 14:26N 33°43' E 131°56'716.6
2018-Apr-21 14:00N 33°45' E 131°47'816.3
2018-Apr-21 13:30N 33°46' E 131°38'816.4
2018-Apr-21 13:00N 33°48' E 131°28'816.4
2018-Apr-21 12:30N 33°50' E 131°19'816.2
2018-Apr-21 12:00N 33°52' E 131°09'612.8
2018-Apr-21 11:30N 33°53' E 131°01'2 3.1
2018-Apr-21 10:49N 33°52' E 130°59'0 0.0
2018-Apr-21 10:25N 33°52' E 130°59'0 0.0
2018-Apr-21 09:55N 33°52' E 130°59'0 0.0
2018-Apr-21 09:25N 33°52' E 130°59'0 0.0
2018-Apr-21 08:55N 33°52' E 130°59'0 0.0
2018-Apr-21 08:13N 33°52' E 130°59'0 0.5
2018-Apr-21 07:58N 33°52' E 130°59'0 0.0
2018-Apr-21 07:28N 33°52' E 130°59'0 0.0
2018-Apr-21 06:55N 33°52' E 130°59'0 0.0
2018-Apr-21 06:19N 33°52' E 130°59'0 0.0
2018-Apr-21 05:55N 33°52' E 130°59'0 0.0
2018-Apr-21 05:28N 33°52' E 130°59'0 0.0
2018-Apr-21 04:55N 33°52' E 130°59'0 0.3
2018-Apr-21 04:27N 33°52' E 130°59'0 0.0
2018-Apr-21 04:00N 33°52' E 130°59'0 0.0
2018-Apr-21 03:27N 33°52' E 130°59'0 0.0
2018-Apr-21 02:57N 33°52' E 130°59'0 0.5
2018-Apr-21 02:30N 33°52' E 130°59'612.2
2018-Apr-21 02:00N 33°53' E 131°07'714.7
2018-Apr-21 01:31N 33°51' E 131°15'714.9
2018-Apr-21 01:01N 33°50' E 131°24'715.0
2018-Apr-21 00:31N 33°48' E 131°33'815.1
2018-Apr-21 00:01N 33°47' E 131°42'814.9
2018-Apr-20 23:30N 33°45' E 131°51'1015.2
2018-Apr-20 22:52N 33°43' E 132°02'515.1
2018-Apr-20 22:30N 33°42' E 132°08'815.4
2018-Apr-20 22:00N 33°44' E 132°17'815.4
2018-Apr-20 21:30N 33°47' E 132°26'815.8
2018-Apr-20 21:00N 33°51' E 132°34'815.9
2018-Apr-20 20:30N 33°57' E 132°41'815.8
2018-Apr-20 20:00N 34°03' E 132°47'1115.4
2018-Apr-20 19:19N 34°10' E 132°56'514.5
2018-Apr-20 18:57N 34°06' E 133°01'4814.9
2018-Apr-20 15:44N 34°24' E 133°54'313.1
2018-Apr-20 15:28N 34°25' E 133°58'714.7
2018-Apr-20 14:59N 34°27' E 134°07'918.0
2018-Apr-20 14:30N 34°24' E 134°17'917.3
2018-Apr-20 14:01N 34°26' E 134°27'917.4
2018-Apr-20 13:31N 34°30' E 134°37'918.1
2018-Apr-20 13:01N 34°34' E 134°47'1019.2
2018-Apr-20 12:31N 34°37' E 134°58'917.4
2018-Apr-20 12:00N 34°36' E 135°08'816.6
2018-Apr-20 11:31N 34°36' E 135°18'611.9
2018-Apr-20 11:00N 34°37' E 135°25'0 0.9
2018-Apr-20 10:28N 34°37' E 135°26'0 0.0
2018-Apr-20 09:58N 34°37' E 135°26'0 0.0
2018-Apr-20 09:28N 34°37' E 135°26'0 0.0
2018-Apr-20 08:58N 34°37' E 135°26'0 0.0
2018-Apr-20 08:28N 34°37' E 135°26'0 0.0
2018-Apr-20 07:58N 34°37' E 135°26'0 0.0
2018-Apr-20 07:28N 34°37' E 135°26'0 0.0
2018-Apr-20 06:58N 34°37' E 135°26'0 0.0
2018-Apr-20 06:28N 34°37' E 135°26'0 0.0
2018-Apr-20 05:58N 34°37' E 135°26'0 0.0
2018-Apr-20 05:28N 34°37' E 135°26'0 0.0
2018-Apr-20 04:58N 34°37' E 135°26'0 0.0
2018-Apr-20 04:28N 34°37' E 135°26'0 0.0
2018-Apr-20 03:58N 34°37' E 135°26'0 0.0
2018-Apr-20 03:28N 34°37' E 135°26'0 0.0
2018-Apr-20 02:58N 34°37' E 135°26'1 2.2
2018-Apr-20 02:30N 34°37' E 135°25'713.6
2018-Apr-20 02:00N 34°36' E 135°17'816.5
2018-Apr-20 01:30N 34°34' E 135°07'713.9
2018-Apr-20 01:00N 34°37' E 134°59'713.7
2018-Apr-20 00:31N 34°34' E 134°51'713.3
2018-Apr-20 00:01N 34°31' E 134°44'713.6
2018-Apr-19 23:30N 34°28' E 134°37'713.9
2018-Apr-19 23:00N 34°26' E 134°29'714.1
2018-Apr-19 22:30N 34°24' E 134°21'714.4
2018-Apr-19 22:00N 34°24' E 134°12'714.3
2018-Apr-19 21:30N 34°26' E 134°04'713.3
2018-Apr-19 21:00N 34°24' E 133°56'914.2
2018-Apr-19 20:22N 34°21' E 133°46'616.2
2018-Apr-19 20:00N 34°18' E 133°40'2016.2
2018-Apr-19 18:45N 34°12' E 133°16'2313.0
2018-Apr-19 16:57N 34°04' E 132°50'817.4
2018-Apr-19 16:31N 33°58' E 132°44'917.5
2018-Apr-19 16:00N 33°53' E 132°36'917.6
2018-Apr-19 15:30N 33°47' E 132°27'1017.9
2018-Apr-19 14:58N 33°43' E 132°17'1018.0
2018-Apr-19 14:26N 33°41' E 132°06'917.9
2018-Apr-19 13:57N 33°43' E 131°55'816.9
2018-Apr-19 13:30N 33°45' E 131°47'916.7
2018-Apr-19 12:59N 33°47' E 131°36'816.8
2018-Apr-19 12:30N 33°48' E 131°27'816.7
2018-Apr-19 12:00N 33°50' E 131°17'816.3
2018-Apr-19 11:30N 33°53' E 131°08'613.1
2018-Apr-19 11:00N 33°52' E 130°60'1 1.0
2018-Apr-19 10:25N 33°52' E 130°59'0 0.0
2018-Apr-19 09:55N 33°52' E 130°59'0 0.0
2018-Apr-19 09:25N 33°52' E 130°59'0 0.0
2018-Apr-19 08:55N 33°52' E 130°59'0 0.0
2018-Apr-19 08:25N 33°52' E 130°59'0 0.2
2018-Apr-19 07:43N 33°52' E 130°59'0 0.0
2018-Apr-19 07:25N 33°52' E 130°59'0 0.0
2018-Apr-19 06:55N 33°52' E 130°59'0 0.0
2018-Apr-19 06:25N 33°52' E 130°59'0 0.0
2018-Apr-19 05:55N 33°52' E 130°59'0 0.0
2018-Apr-19 05:25N 33°52' E 130°59'0 0.0
2018-Apr-19 04:58N 33°52' E 130°59'0 0.3
2018-Apr-19 04:27N 33°52' E 130°59'0 0.0
2018-Apr-19 04:00N 33°52' E 130°59'0 0.0
2018-Apr-19 03:27N 33°52' E 130°59'0 0.0
2018-Apr-19 02:57N 33°52' E 130°59'0 0.9
2018-Apr-19 02:30N 33°52' E 130°60'612.3
2018-Apr-19 02:00N 33°53' E 131°07'714.8
2018-Apr-19 01:30N 33°51' E 131°16'714.9
2018-Apr-19 01:00N 33°50' E 131°25'815.1
2018-Apr-19 00:30N 33°48' E 131°33'815.1
2018-Apr-19 00:00N 33°47' E 131°42'815.1
2018-Apr-18 23:30N 33°45' E 131°51'815.1
2018-Apr-18 23:00N 33°43' E 132°00'915.0
2018-Apr-18 22:25N 33°43' E 132°11'716.0
2018-Apr-18 21:58N 33°45' E 132°19'715.5
2018-Apr-18 21:30N 33°48' E 132°27'714.5
2018-Apr-18 21:00N 33°52' E 132°34'715.1
2018-Apr-18 20:31N 33°57' E 132°41'915.5
2018-Apr-18 19:54N 34°04' E 132°48'1014.6
2018-Apr-18 19:14N 34°09' E 132°58'5014.1
2018-Apr-18 15:41N 34°25' E 133°56'413.6
2018-Apr-18 15:23N 34°26' E 134°00'614.9
2018-Apr-18 15:00N 34°27' E 134°07'816.0
2018-Apr-18 14:31N 34°24' E 134°16'816.4
2018-Apr-18 14:00N 34°26' E 134°26'917.4
2018-Apr-18 13:31N 34°30' E 134°36'918.1
2018-Apr-18 13:00N 34°33' E 134°46'1019.9
2018-Apr-18 12:30N 34°37' E 134°57'918.2
2018-Apr-18 12:01N 34°36' E 135°08'816.8
2018-Apr-18 11:30N 34°37' E 135°18'612.0
2018-Apr-18 11:00N 34°37' E 135°25'0 0.9
2018-Apr-18 10:31N 34°37' E 135°26'0 0.0
2018-Apr-18 10:01N 34°37' E 135°26'0 0.0
2018-Apr-18 09:31N 34°37' E 135°26'0 0.0
2018-Apr-18 09:01N 34°37' E 135°26'0 0.0
2018-Apr-18 08:30N 34°37' E 135°26'0 0.0
2018-Apr-18 08:01N 34°37' E 135°26'0 0.0
2018-Apr-18 07:30N 34°37' E 135°26'0 0.0
2018-Apr-18 07:01N 34°37' E 135°26'0 0.0
2018-Apr-18 06:30N 34°37' E 135°26'0 0.0
2018-Apr-18 06:01N 34°37' E 135°26'0 0.0
2018-Apr-18 05:31N 34°37' E 135°26'0 0.0
2018-Apr-18 05:00N 34°37' E 135°26'0 0.0
2018-Apr-18 04:31N 34°37' E 135°26'0 0.0
2018-Apr-18 04:01N 34°37' E 135°26'0 0.0
2018-Apr-18 03:30N 34°37' E 135°26'0 0.0
2018-Apr-18 03:00N 34°37' E 135°26'1 1.6
2018-Apr-18 02:30N 34°37' E 135°25'713.7
2018-Apr-18 02:00N 34°35' E 135°17'817.2
2018-Apr-18 01:31N 34°35' E 135°07'714.8
2018-Apr-18 01:00N 34°37' E 134°58'815.8
2018-Apr-18 00:30N 34°33' E 134°49'816.7
2018-Apr-18 00:00N 34°30' E 134°40'917.2
2018-Apr-17 23:30N 34°27' E 134°30'917.5
2018-Apr-17 23:00N 34°24' E 134°20'816.5
2018-Apr-17 22:30N 34°25' E 134°10'1111.7
2018-Apr-17 21:33N 34°24' E 133°57'112.5
2018-Apr-17 21:30N 34°24' E 133°56'1415.0
2018-Apr-17 20:34N 34°18' E 133°41'4214.0
2018-Apr-17 17:35N 34°07' E 132°52'215.1
2018-Apr-17 17:28N 34°05' E 132°51'715.3
2018-Apr-17 17:00N 33°60' E 132°45'815.5
2018-Apr-17 16:28N 33°54' E 132°38'715.9
2018-Apr-17 16:00N 33°49' E 132°32'816.3
2018-Apr-17 15:29N 33°45' E 132°23'1016.4
2018-Apr-17 14:52N 33°42' E 132°11'716.6
2018-Apr-17 14:27N 33°42' E 132°03'717.0
2018-Apr-17 14:00N 33°43' E 131°54'916.8
2018-Apr-17 13:30N 33°45' E 131°44'816.6
2018-Apr-17 13:00N 33°47' E 131°34'816.4
2018-Apr-17 12:30N 33°49' E 131°25'816.1
2018-Apr-17 12:00N 33°51' E 131°15'815.3
2018-Apr-17 11:30N 33°53' E 131°06'611.1
2018-Apr-17 11:00N 33°52' E 130°60'0 0.7
2018-Apr-17 10:26N 33°52' E 130°59'0 0.0
2018-Apr-17 09:56N 33°52' E 130°59'0 0.0
2018-Apr-17 09:29N 33°52' E 130°59'0 0.0
2018-Apr-17 08:50N 33°52' E 130°59'0 0.0
2018-Apr-17 08:26N 33°52' E 130°59'0 0.3
2018-Apr-17 07:55N 33°52' E 130°59'0 0.0
2018-Apr-17 07:25N 33°52' E 130°59'0 0.0
2018-Apr-17 06:55N 33°52' E 130°59'0 0.0
2018-Apr-17 06:25N 33°52' E 130°59'0 0.0
2018-Apr-17 05:58N 33°52' E 130°59'0 0.0
2018-Apr-17 05:28N 33°52' E 130°59'0 0.0
2018-Apr-17 04:55N 33°52' E 130°59'0 0.3
2018-Apr-17 04:27N 33°52' E 130°59'0 0.0
2018-Apr-17 03:57N 33°52' E 130°59'0 0.0
2018-Apr-17 03:27N 33°52' E 130°59'0 0.0
2018-Apr-17 02:43N 33°52' E 130°59'0 1.2
2018-Apr-17 02:30N 33°52' E 130°59'611.5
2018-Apr-17 02:00N 33°53' E 131°06'714.5
2018-Apr-17 01:30N 33°51' E 131°15'715.0
2018-Apr-17 01:00N 33°50' E 131°24'815.1
2018-Apr-17 00:30N 33°48' E 131°32'815.3
2018-Apr-17 00:00N 33°47' E 131°41'815.8
2018-Apr-16 23:30N 33°45' E 131°51'816.0
2018-Apr-16 23:00N 33°44' E 132°00'714.8
2018-Apr-16 22:30N 33°42' E 132°09'814.4
2018-Apr-16 21:57N 33°45' E 132°18'714.1
2018-Apr-16 21:29N 33°47' E 132°26'714.2
2018-Apr-16 21:00N 33°51' E 132°33'714.7
2018-Apr-16 20:31N 33°56' E 132°39'815.0
2018-Apr-16 20:00N 34°01' E 132°45'1315.5
2018-Apr-16 19:10N 34°10' E 132°57'5414.6
2018-Apr-16 15:29N 34°26' E 133°59'713.5
2018-Apr-16 14:57N 34°26' E 134°08'715.8
2018-Apr-16 14:31N 34°25' E 134°16'816.6
2018-Apr-16 14:00N 34°26' E 134°26'917.2
2018-Apr-16 13:30N 34°30' E 134°36'917.6
2018-Apr-16 13:00N 34°33' E 134°45'1019.2
2018-Apr-16 12:31N 34°37' E 134°56'917.6
2018-Apr-16 12:00N 34°36' E 135°07'917.2
2018-Apr-16 11:31N 34°37' E 135°17'712.9
2018-Apr-16 11:00N 34°37' E 135°25'0 0.9
2018-Apr-16 10:29N 34°37' E 135°26'0 0.0
2018-Apr-16 09:59N 34°37' E 135°26'0 0.0
2018-Apr-16 09:29N 34°37' E 135°26'0 0.0
2018-Apr-16 08:59N 34°37' E 135°26'0 0.0
2018-Apr-16 08:29N 34°37' E 135°26'0 0.0
2018-Apr-16 07:59N 34°37' E 135°26'0 0.0
2018-Apr-16 07:29N 34°37' E 135°26'0 0.0
2018-Apr-16 06:59N 34°37' E 135°26'0 0.0
2018-Apr-16 06:29N 34°37' E 135°26'0 0.0
2018-Apr-16 05:59N 34°37' E 135°26'0 0.0
2018-Apr-16 05:29N 34°37' E 135°26'0 0.0
2018-Apr-16 04:59N 34°37' E 135°26'0 0.0
2018-Apr-16 04:29N 34°37' E 135°26'0 0.0
2018-Apr-16 03:59N 34°37' E 135°26'0 0.0
2018-Apr-16 03:29N 34°37' E 135°26'0 0.0
2018-Apr-16 02:59N 34°37' E 135°26'1 1.4
2018-Apr-16 02:30N 34°37' E 135°25'611.5
2018-Apr-16 02:00N 34°36' E 135°18'714.0
2018-Apr-16 01:30N 34°35' E 135°10'713.5
2018-Apr-16 01:00N 34°36' E 135°02'713.5
2018-Apr-16 00:30N 34°35' E 134°54'714.8
2018-Apr-16 00:01N 34°32' E 134°46'816.2
2018-Apr-15 23:30N 34°29' E 134°37'816.4
2018-Apr-15 23:00N 34°26' E 134°27'816.0
2018-Apr-15 22:30N 34°23' E 134°18'815.0
2018-Apr-15 21:59N 34°26' E 134°09'2414.1
2018-Apr-15 20:16N 34°18' E 133°41'4414.0
2018-Apr-15 17:07N 34°05' E 132°50'215.3
2018-Apr-15 17:00N 34°04' E 132°49'714.8
2018-Apr-15 16:30N 33°58' E 132°44'815.1
2018-Apr-15 16:00N 33°53' E 132°37'915.4
2018-Apr-15 15:25N 33°47' E 132°28'715.8
2018-Apr-15 15:00N 33°45' E 132°21'816.1
2018-Apr-15 14:30N 33°42' E 132°12'1117.4
2018-Apr-15 13:52N 33°43' E 131°58'618.3
2018-Apr-15 13:30N 33°44' E 131°51'918.4
2018-Apr-15 13:00N 33°46' E 131°40'918.3
2018-Apr-15 12:30N 33°48' E 131°29'917.9
2018-Apr-15 12:00N 33°50' E 131°19'917.5
2018-Apr-15 11:28N 33°53' E 131°08'613.8
2018-Apr-15 11:00N 33°52' E 131°00'1 1.5
2018-Apr-15 10:29N 33°52' E 130°59'0 0.0
2018-Apr-15 09:59N 33°52' E 130°59'0 0.0
2018-Apr-15 09:29N 33°52' E 130°59'0 0.0
2018-Apr-15 08:59N 33°52' E 130°59'0 0.0
2018-Apr-15 08:29N 33°52' E 130°59'0 0.3
2018-Apr-15 07:59N 33°52' E 130°59'0 0.0
2018-Apr-15 07:29N 33°52' E 130°59'0 0.0
2018-Apr-15 06:59N 33°52' E 130°59'0 0.0
2018-Apr-15 06:29N 33°52' E 130°59'0 0.0
2018-Apr-15 05:59N 33°52' E 130°59'0 0.0
2018-Apr-15 05:29N 33°52' E 130°59'0 0.0
2018-Apr-15 04:59N 33°52' E 130°59'0 0.3
2018-Apr-15 04:29N 33°52' E 130°59'0 0.0
2018-Apr-15 03:59N 33°52' E 130°59'0 0.0
2018-Apr-15 03:29N 33°52' E 130°59'0 0.0
2018-Apr-15 02:59N 33°52' E 130°59'1 1.5
2018-Apr-15 02:30N 33°52' E 131°00'611.4
2018-Apr-15 02:00N 33°53' E 131°07'612.6
2018-Apr-15 01:31N 33°51' E 131°14'713.0
2018-Apr-15 01:00N 33°50' E 131°22'713.7
2018-Apr-15 00:30N 33°49' E 131°30'713.8
2018-Apr-15 00:00N 33°48' E 131°38'815.1
2018-Apr-14 23:30N 33°46' E 131°47'816.3
2018-Apr-14 23:00N 33°44' E 131°57'816.0
2018-Apr-14 22:30N 33°42' E 132°06'715.2
2018-Apr-14 22:00N 33°44' E 132°15'816.4
2018-Apr-14 21:30N 33°46' E 132°24'816.6
2018-Apr-14 21:00N 33°51' E 132°33'816.7
2018-Apr-14 20:31N 33°56' E 132°40'916.1
2018-Apr-14 19:58N 34°03' E 132°47'6814.7
2018-Apr-14 15:22N 34°27' E 134°04'814.9
2018-Apr-14 14:48N 34°25' E 134°13'515.1
2018-Apr-14 14:30N 34°25' E 134°19'816.4
2018-Apr-14 14:00N 34°28' E 134°28'816.2
2018-Apr-14 13:30N 34°31' E 134°37'816.7
2018-Apr-14 13:00N 34°34' E 134°46'917.8
2018-Apr-14 12:30N 34°37' E 134°57'917.1
2018-Apr-14 12:00N 34°36' E 135°07'917.4
2018-Apr-14 11:30N 34°36' E 135°17'713.2
2018-Apr-14 11:00N 34°37' E 135°25'0 0.7
2018-Apr-14 10:29N 34°37' E 135°26'0 0.0
2018-Apr-14 09:59N 34°37' E 135°26'0 0.0
2018-Apr-14 09:29N 34°37' E 135°26'0 0.0
2018-Apr-14 08:59N 34°37' E 135°26'0 0.0
2018-Apr-14 08:29N 34°37' E 135°26'0 0.0
2018-Apr-14 07:59N 34°37' E 135°26'0 0.0
2018-Apr-14 07:29N 34°37' E 135°26'0 0.0
2018-Apr-14 06:56N 34°37' E 135°26'0 0.0
2018-Apr-14 06:29N 34°37' E 135°26'0 0.0
2018-Apr-14 05:59N 34°37' E 135°26'0 0.0
2018-Apr-14 05:26N 34°37' E 135°26'0 0.0
2018-Apr-14 04:59N 34°37' E 135°26'0 0.0
2018-Apr-14 04:26N 34°37' E 135°26'0 0.0
2018-Apr-14 03:59N 34°37' E 135°26'0 0.0
2018-Apr-14 03:29N 34°37' E 135°26'0 0.0
2018-Apr-14 02:59N 34°37' E 135°26'1 1.4
2018-Apr-14 02:30N 34°37' E 135°25'612.2
2018-Apr-14 02:00N 34°36' E 135°18'714.5
2018-Apr-14 01:30N 34°35' E 135°09'714.5
2018-Apr-14 01:00N 34°37' E 135°01'816.8
2018-Apr-14 00:30N 34°34' E 134°51'816.4
2018-Apr-14 00:00N 34°31' E 134°42'917.2
2018-Apr-13 23:30N 34°27' E 134°33'917.4
2018-Apr-13 23:00N 34°24' E 134°23'816.4
2018-Apr-13 22:31N 34°24' E 134°13'914.6
2018-Apr-13 21:54N 34°26' E 134°02'711.9
2018-Apr-13 21:18N 34°24' E 133°54'713.6
2018-Apr-13 20:48N 34°21' E 133°47'514.4
2018-Apr-13 20:28N 34°18' E 133°42'1014.9
2018-Apr-13 19:48N 34°16' E 133°30'3413.1
2018-Apr-13 17:10N 34°05' E 132°51'315.2
2018-Apr-13 16:58N 34°03' E 132°48'714.7
2018-Apr-13 16:30N 33°57' E 132°43'714.6
2018-Apr-13 16:00N 33°53' E 132°36'815.3
2018-Apr-13 15:29N 33°47' E 132°29'715.6
2018-Apr-13 15:00N 33°45' E 132°21'815.8
2018-Apr-13 14:30N 33°42' E 132°12'816.8
2018-Apr-13 14:00N 33°42' E 132°02'918.0
2018-Apr-13 13:30N 33°44' E 131°51'918.4
2018-Apr-13 13:00N 33°46' E 131°40'918.5
2018-Apr-13 12:30N 33°48' E 131°30'918.3
2018-Apr-13 12:00N 33°50' E 131°19'917.9
2018-Apr-13 11:30N 33°52' E 131°08'714.1
2018-Apr-13 11:00N 33°52' E 131°00'1 1.3
2018-Apr-13 10:29N 33°52' E 130°59'0 0.0
2018-Apr-13 09:56N 33°52' E 130°59'0 0.0
2018-Apr-13 09:26N 33°52' E 130°59'0 0.0
2018-Apr-13 08:56N 33°52' E 130°59'0 0.0
2018-Apr-13 08:29N 33°52' E 130°59'0 0.3
2018-Apr-13 07:56N 33°52' E 130°59'0 0.0
2018-Apr-13 07:26N 33°52' E 130°59'0 0.0
2018-Apr-13 06:56N 33°52' E 130°59'0 0.0
2018-Apr-13 06:26N 33°52' E 130°59'0 0.0
2018-Apr-13 05:56N 33°52' E 130°59'0 0.0
2018-Apr-13 05:26N 33°52' E 130°59'0 0.0
2018-Apr-13 04:56N 33°52' E 130°59'0 0.3
2018-Apr-13 04:29N 33°52' E 130°59'0 0.0
2018-Apr-13 03:59N 33°52' E 130°59'0 0.0
2018-Apr-13 03:26N 33°52' E 130°59'0 0.0
2018-Apr-13 02:59N 33°52' E 130°59'1 1.5
2018-Apr-13 02:30N 33°52' E 131°00'612.0
2018-Apr-13 02:00N 33°53' E 131°07'714.1
2018-Apr-13 01:30N 33°52' E 131°15'714.8
2018-Apr-13 01:01N 33°50' E 131°24'815.1
2018-Apr-13 00:31N 33°49' E 131°33'815.1
2018-Apr-13 00:00N 33°47' E 131°42'714.9
2018-Apr-12 23:31N 33°45' E 131°50'815.4
2018-Apr-12 23:01N 33°43' E 131°59'915.4
2018-Apr-12 22:25N 33°43' E 132°10'716.9
2018-Apr-12 22:01N 33°45' E 132°18'917.2
2018-Apr-12 21:31N 33°48' E 132°28'917.0
2018-Apr-12 21:00N 33°53' E 132°36'816.2
2018-Apr-12 20:30N 33°59' E 132°43'7014.5
2018-Apr-12 15:40N 34°26' E 134°01'214.3
2018-Apr-12 15:30N 34°27' E 134°04'715.1
2018-Apr-12 15:01N 34°25' E 134°13'815.3
2018-Apr-12 14:30N 34°25' E 134°22'  

Dump ship's entire track history